• Join FlightAware (Why Join?)
  • Login
  • US Flag 
05:55AM EDT


 

Airport Tracker/Info


-or-


 

Live Flight TrackerFlight Track Log ✈ C-FTOH ✈ 25-Apr-2013 ✈ CYQG - MUVR / VRA

Flight Track Log - Related Links

Times and Time Zones

All times are in EDT time to prevent confusion due to time zone crossing. See the C-FTOH flight status page for this flight to view local times or setup timezone preferences in your user account.

Time Position Orientation Groundspeed Altitude Reporting Facility
EDT Latitude Longitude Course Direction KTS MPH feet Rate Location/Type
03:50PM 42.2728 -82.9739 175° South 138 159 1,700  Level Cleveland Center
03:51PM 42.2103 -82.9661 175° South 223 257 4,300 2,520 Climbing Cleveland Center
03:52PM 42.1461 -82.9467 167° South 286 329 7,100 3,060 Climbing Cleveland Center
03:53PM 42.1061 -82.9622 196° South 256 295 9,100 3,060 Climbing Cleveland Center
03:58PM 41.7100 -83.2870 196° South 374 430 25,200 3,000 Climbing FlightAware
03:59PM 41.6440 -83.3220 202° Southwest 386 444 26,900 2,400 Climbing FlightAware
03:59PM 41.5760 -83.3590 202° Southwest 398 458 28,400 2,100 Climbing FlightAware
04:00PM 41.4960 -83.4030 202° Southwest 410 472 29,900 1,920 Climbing FlightAware
04:01PM 41.4250 -83.4410 202° Southwest 417 480 31,200 2,100 Climbing FlightAware
04:02PM 41.3530 -83.4800 202° Southwest 417 480 32,700 2,100 Climbing FlightAware
04:02PM 41.2720 -83.5230 202° Southwest 418 481 34,200 1,680 Climbing FlightAware
04:03PM 41.2010 -83.5620 202° Southwest 423 487 35,100 1,380 Climbing FlightAware
04:04PM 41.1200 -83.6050 202° Southwest 423 487 36,200 1,500 Climbing FlightAware
04:04PM 41.0460 -83.6440 202° Southwest 423 487 37,300 1,860 Climbing FlightAware
04:05PM 40.9760 -83.6810 202° Southwest 410 472 38,700 1,260 Climbing FlightAware
04:06PM 40.9060 -83.7190 202° Southwest 412 474 39,000 180 Climbing FlightAware
04:06PM 40.8200 -83.7510 196° South 432 497 39,000  Level FlightAware
04:07PM 40.7410 -83.7550 182° South 439 505 39,000  Level FlightAware
04:08PM 40.6500 -83.7580 181° South 433 498 39,000  Level FlightAware
04:09PM 40.5700 -83.7600 181° South 427 491 39,000  Level FlightAware
04:09PM 40.4790 -83.7630 181° South 428 493 39,000  Level FlightAware
04:10PM 40.4010 -83.7650 181° South 428 493 39,000  Level FlightAware
04:11PM 40.3120 -83.7680 181° South 429 494 39,000  Level FlightAware
04:11PM 40.2350 -83.7700 181° South 429 494 39,000  Level FlightAware
04:12PM 40.1420 -83.7730 181° South 430 495 39,000  Level FlightAware
04:13PM 40.0630 -83.7750 181° South 430 495 39,000  Level FlightAware
04:13PM 39.9830 -83.7780 182° South 429 494 39,000  Level FlightAware
04:14PM 39.8950 -83.7810 181° South 429 494 39,000  Level FlightAware
04:15PM 39.8150 -83.7830 181° South 428 493 39,000  Level FlightAware
04:16PM 39.7390 -83.7850 181° South 429 494 39,000  Level FlightAware
04:16PM 39.6650 -83.7870 181° South 429 494 39,000  Level FlightAware
04:17PM 39.5700 -83.7910 182° South 429 494 39,000  Level FlightAware
04:18PM 39.4800 -83.7930 181° South 429 494 39,000  Level FlightAware
04:18PM 39.3990 -83.7950 181° South 433 498 39,000  Level FlightAware
04:19PM 39.2960 -83.7980 181° South 434 499 39,000  Level FlightAware
04:20PM 39.2280 -83.8000 181° South 434 499 39,000  Level FlightAware
04:21PM 39.1600 -83.8010 181° South 434 499 39,000  Level FlightAware
04:21PM 39.0740 -83.8030 181° South 434 499 39,000  Level FlightAware
04:22PM 38.9620 -83.8090 182° South 431 496 39,000  Level FlightAware
04:23PM 38.8680 -83.8110 181° South 429 494 39,000  Level FlightAware
04:24PM 38.7810 -83.8140 182° South 427 491 39,000  Level FlightAware
04:24PM 38.7160 -83.8150 181° South 428 493 39,000  Level FlightAware
04:25PM 38.6490 -83.8170 181° South 428 493 39,000  Level FlightAware
04:26PM 38.5650 -83.8190 181° South 428 493 39,000  Level FlightAware
04:26PM 38.4970 -83.8200 181° South 428 493 39,000  Level FlightAware
04:27PM 38.3660 -83.8260 182° South 426 490 39,000  Level FlightAware
04:28PM 38.2960 -83.8280 181° South 425 489 39,000  Level FlightAware
04:28PM 38.1980 -83.8310 181° South 423 487 39,000  Level FlightAware
04:29PM 38.1210 -83.8330 181° South 422 486 39,000  Level FlightAware
04:30PM 38.0450 -83.8350 181° South 422 486 39,000  Level FlightAware
04:31PM 37.9520 -83.8380 181° South 421 484 39,000  Level FlightAware
04:31PM 37.9040 -83.8391 181° South 422 486 39,000  Level FlightAware ADS-B
04:32PM 37.8340 -83.8411 181° South 423 487 39,000  Level FlightAware ADS-B
04:33PM 37.7150 -83.8450 181° South 423 487 39,000  Level FlightAware
04:33PM 37.6965 -83.8450 180° South 423 487 39,000  Level FlightAware ADS-B
04:33PM 37.6420 -83.8460 181° South 423 487 39,000  Level FlightAware
04:34PM 37.5750 -83.8480 181° South 423 487 39,000  Level FlightAware
04:35PM 37.4650 -83.8520 182° South 424 488 39,000  Level FlightAware
04:35PM 37.4171 -83.8530 181° South 425 489 39,000  Level FlightAware ADS-B
04:36PM 37.3575 -83.8546 181° South 424 488 39,000  Level FlightAware ADS-B
04:36PM 37.2551 -83.8576 181° South 423 487 39,000  Level FlightAware ADS-B
04:37PM 37.1957 -83.8593 181° South 424 488 39,000  Level FlightAware ADS-B
04:38PM 37.0902 -83.8622 181° South 425 489 39,000  Level FlightAware ADS-B
04:38PM 37.0302 -83.8637 181° South 425 489 39,000  Level FlightAware ADS-B
04:39PM 36.9306 -83.8665 181° South 424 488 39,000  Level FlightAware ADS-B
04:40PM 36.8699 -83.8683 181° South 424 488 39,000  Level FlightAware ADS-B
04:40PM 36.8064 -83.8701 181° South 424 488 39,000  Level FlightAware ADS-B
04:41PM 36.7466 -83.8717 181° South 425 489 39,000  Level FlightAware ADS-B
04:41PM 36.6853 -83.8733 181° South 424 488 39,000  Level FlightAware ADS-B
04:42PM 36.6248 -83.8750 181° South 423 487 39,000  Level FlightAware ADS-B
04:42PM 36.5659 -83.8766 181° South 421 484 39,000  Level FlightAware ADS-B
04:43PM 36.5061 -83.8783 181° South 419 482 39,000  Level FlightAware ADS-B
04:43PM 36.4476 -83.8799 181° South 419 482 39,000  Level FlightAware ADS-B
04:44PM 36.3889 -83.8816 181° South 420 483 39,000  Level FlightAware ADS-B
04:44PM 36.3192 -83.8835 181° South 421 484 39,000  Level FlightAware ADS-B
04:45PM 36.2597 -83.8851 181° South 421 484 39,000  Level FlightAware ADS-B
04:45PM 36.2002 -83.8867 181° South 420 483 39,000  Level FlightAware ADS-B
04:46PM 36.1366 -83.8885 181° South 419 482 39,000  Level FlightAware ADS-B
04:47PM 36.0696 -83.8904 181° South 420 483 39,000  Level FlightAware ADS-B
04:47PM 36.0092 -83.8921 181° South 424 488 39,000  Level FlightAware ADS-B
04:48PM 35.9410 -83.8934 181° South 426 490 39,000  Level FlightAware ADS-B
04:48PM 35.8899 -83.8885 176° South 439 505 39,000  Level FlightAware ADS-B
04:48PM 35.8617 -83.8819 169° South 447 514 39,000  Level FlightAware ADS-B
04:49PM 35.7978 -83.8629 166° South 450 518 39,000  Level FlightAware ADS-B
04:49PM 35.7355 -83.8443 166° South 450 518 39,000  Level FlightAware ADS-B
04:50PM 35.6727 -83.8257 166° South 450 518 39,000  Level FlightAware ADS-B
04:50PM 35.6113 -83.8073 166° South 452 520 39,000  Level FlightAware ADS-B
04:51PM 35.5481 -83.7886 166° South 452 520 39,000  Level FlightAware ADS-B
04:51PM 35.4850 -83.7701 167° South 450 518 39,000  Level FlightAware ADS-B
04:52PM 35.4141 -83.7492 166° South 451 519 39,000  Level FlightAware ADS-B
04:53PM 35.3529 -83.7312 167° South 451 519 39,000  Level FlightAware ADS-B
04:53PM 35.2856 -83.7114 166° South 449 517 39,000  Level FlightAware ADS-B
04:54PM 35.1970 -83.6850 166° South 449 517 39,000  Level FlightAware
04:54PM 35.1812 -83.6807 167° South 449 517 39,000  Level FlightAware ADS-B
04:54PM 35.1197 -83.6627 167° South 449 517 39,000  Level FlightAware ADS-B
04:55PM 35.0580 -83.6446 166° South 452 520 39,000  Level FlightAware ADS-B
04:56PM 34.9694 -83.6188 167° South 453 521 39,000  Level FlightAware ADS-B
04:56PM 34.9066 -83.6006 167° South 453 521 39,000  Level FlightAware ADS-B
04:57PM 34.8419 -83.5818 167° South 454 522 39,000  Level FlightAware ADS-B
04:57PM 34.7742 -83.5620 166° South 454 522 39,000  Level FlightAware ADS-B
04:58PM 34.7099 -83.5433 167° South 453 521 39,000  Level FlightAware ADS-B
04:58PM 34.6467 -83.5250 167° South 450 518 39,000  Level FlightAware ADS-B
04:59PM 34.5847 -83.5071 167° South 449 517 39,000  Level FlightAware ADS-B
04:59PM 34.5237 -83.4897 167° South 448 516 39,000  Level FlightAware ADS-B
05:00PM 34.4626 -83.4722 167° South 447 514 39,000  Level FlightAware ADS-B
05:00PM 34.4015 -83.4547 167° South 447 514 39,000  Level FlightAware ADS-B
05:01PM 34.3393 -83.4367 167° South 448 516 39,000  Level FlightAware ADS-B
05:01PM 34.2758 -83.4183 167° South 449 517 39,000  Level FlightAware ADS-B
05:02PM 34.2083 -83.3991 167° South 449 517 39,000  Level FlightAware ADS-B
05:02PM 34.1464 -83.3815 167° South 449 517 39,000  Level FlightAware ADS-B
05:03PM 34.0813 -83.3629 167° South 449 517 39,000  Level FlightAware ADS-B
05:04PM 34.0197 -83.3453 167° South 450 518 39,000  Level FlightAware ADS-B
05:04PM 33.9572 -83.3274 167° South 451 519 39,000  Level FlightAware ADS-B
05:05PM 33.8650 -83.2960 164° South 450 518 39,000 60 Level FlightAware
05:05PM 33.8452 -83.2890 164° South 456 525 39,100 360 Climbing FlightAware ADS-B
05:06PM 33.7730 -83.2640 164° South 469 540 39,300 660 Climbing FlightAware
05:06PM 33.6880 -83.2340 164° South 471 542 40,000 480 Climbing FlightAware
05:07PM 33.5980 -83.2030 164° South 471 542 40,000  Level FlightAware
05:08PM 33.5130 -83.1740 164° South 469 540 40,000  Level FlightAware
05:08PM 33.4240 -83.1430 164° South 477 549 40,000  Level FlightAware
05:09PM 33.3220 -83.1080 164° South 478 550 40,000  Level FlightAware
05:10PM 33.2500 -83.0830 164° South 478 550 40,000  Level FlightAware
05:10PM 33.1550 -83.0510 164° South 479 551 40,000  Level FlightAware
05:11PM 33.0590 -83.0180 164° South 479 551 40,000  Level FlightAware
05:12PM 32.9530 -82.9820 164° South 479 551 40,000  Level FlightAware
05:13PM 32.8470 -82.9460 164° South 475 547 40,000  Level FlightAware
05:13PM 32.7810 -82.9240 164° South 474 545 40,000  Level FlightAware
05:14PM 32.6920 -82.8930 164° South 474 545 40,000  Level FlightAware
05:15PM 32.5210 -82.8360 164° South 474 545 40,000  Level FlightAware
05:16PM 32.4340 -82.8040 163° South 474 545 40,000  Level FlightAware
05:17PM 32.3620 -82.7780 163° South 474 545 40,000  Level FlightAware
05:18PM 32.2730 -82.7460 163° South 474 545 40,000  Level FlightAware
05:18PM 32.2020 -82.7200 163° South 474 545 40,000  Level FlightAware
05:19PM 32.1310 -82.6950 163° South 474 545 40,000  Level FlightAware
05:20PM 32.0590 -82.6690 163° South 474 545 40,000  Level FlightAware
05:20PM 31.9880 -82.6430 163° South 474 545 40,000  Level FlightAware
05:21PM 31.8990 -82.6110 163° South 474 545 40,000  Level FlightAware
05:22PM 31.8270 -82.5850 163° South 474 545 40,000  Level FlightAware
05:23PM 31.7560 -82.5600 163° South 474 545 40,000  Level FlightAware
05:23PM 31.6850 -82.5340 163° South 474 545 40,000  Level FlightAware
05:24PM 31.6140 -82.5090 163° South 474 545 40,000  Level FlightAware
05:25PM 31.5240 -82.4770 163° South 474 545 40,000  Level FlightAware
05:25PM 31.4530 -82.4510 163° South 474 545 40,000 -120 Level FlightAware
05:26PM 31.1639 -82.5258 163° South 444 511 39,900  Descending Jacksonville Center
05:27PM 31.0428 -82.5336 183° South 439 505 40,000  Climbing Jacksonville Center
05:28PM 30.9194 -82.5367 181° South 439 505 40,000 120 Level Jacksonville Center
05:34PM 30.1770 -82.4390 181° South 481 554 41,000 120 Climbing FlightAware
05:35PM 30.0930 -82.4100 163° South 481 554 41,000  Level FlightAware
05:36PM 29.9940 -82.3770 164° South 480 552 41,000  Level FlightAware
05:36PM 29.8980 -82.3440 163° South 481 554 41,000  Level FlightAware
05:37PM 29.8130 -82.3150 164° South 482 555 41,000  Level FlightAware
05:38PM 29.7320 -82.2870 163° South 482 555 41,000  Level FlightAware
05:38PM 29.6280 -82.2630 169° South 474 545 41,000  Level FlightAware
05:39PM 29.5400 -82.2490 172° South 479 551 41,000  Level FlightAware
05:40PM 29.4450 -82.2350 173° South 480 552 41,000  Level FlightAware
05:41PM 29.3550 -82.2210 172° South 483 556 41,000  Level FlightAware
05:41PM 29.2540 -82.1960 168° South 488 562 41,000  Level FlightAware
05:42PM 29.1690 -82.1740 167° South 488 562 41,000  Level FlightAware
05:43PM 29.0770 -82.1500 167° South 486 559 41,000  Level FlightAware
05:43PM 28.9790 -82.1260 168° South 485 558 41,000  Level FlightAware
05:44PM 28.8920 -82.1040 168° South 485 558 41,000  Level FlightAware
05:45PM 28.8040 -82.0820 168° South 484 557 41,000  Level FlightAware
05:45PM 28.7100 -82.0580 167° South 484 557 41,000  Level FlightAware
05:46PM 28.6170 -82.0360 168° South 482 555 41,000  Level FlightAware
05:47PM 28.5220 -82.0120 167° South 480 552 41,000  Level FlightAware
05:48PM 28.4390 -81.9910 167° South 478 550 41,000  Level FlightAware
05:48PM 28.3470 -81.9690 168° South 475 547 41,000  Level FlightAware
05:49PM 28.2490 -81.9440 167° South 472 543 41,000  Level FlightAware
05:50PM 28.1640 -81.9230 168° South 468 539 41,000  Level FlightAware
05:50PM 28.0820 -81.9030 168° South 466 536 41,000  Level FlightAware
05:51PM 27.9900 -81.8800 168° South 465 535 41,000  Level FlightAware
05:52PM 27.9020 -81.8580 168° South 464 534 41,000  Level FlightAware
05:52PM 27.8040 -81.8340 168° South 466 536 41,000  Level FlightAware
05:53PM 27.7210 -81.8140 168° South 469 540 41,000  Level FlightAware
05:54PM 27.6350 -81.7930 168° South 470 541 41,000  Level FlightAware
05:55PM 27.5410 -81.7690 167° South 470 541 41,000  Level FlightAware
05:55PM 27.4580 -81.7490 168° South 472 543 41,000  Level FlightAware
05:56PM 27.3700 -81.7280 168° South 475 547 41,000  Level FlightAware
05:57PM 27.2850 -81.7070 168° South 476 548 41,000  Level FlightAware
05:58PM 27.1660 -81.6780 168° South 473 544 41,000  Level FlightAware
05:58PM 27.0770 -81.6570 168° South 462 532 41,000  Level FlightAware
05:59PM 26.9340 -81.6220 168° South 459 528 41,000  Level FlightAware
06:00PM 26.8300 -81.6010 170° South 452 520 41,000  Level FlightAware
06:01PM 26.7530 -81.5900 173° South 453 521 41,000  Level FlightAware
06:02PM 26.6470 -81.5760 173° South 455 524 41,000  Level FlightAware
06:02PM 26.5630 -81.5640 173° South 455 524 41,000  Level FlightAware
06:03PM 26.4650 -81.5510 173° South 456 525 41,000  Level FlightAware
06:04PM 26.3800 -81.5390 173° South 468 539 41,000  Level FlightAware
06:04PM 26.2940 -81.5270 173° South 470 541 41,000  Level FlightAware
06:05PM 26.1950 -81.5130 173° South 470 541 41,000  Level FlightAware
06:06PM 26.1080 -81.5010 173° South 471 542 41,000  Level FlightAware
06:06PM 26.0210 -81.4890 173° South 472 543 41,000  Level FlightAware
06:08PM 25.8550 -81.4670 173° South 466 536 41,000  Level FlightAware
06:09PM 25.7460 -81.4520 173° South 467 537 41,000  Level FlightAware
06:09PM 25.6590 -81.4400 173° South 466 536 41,000  Level FlightAware
06:10PM 25.5590 -81.4270 173° South 471 542 41,000  Level FlightAware
06:11PM 25.4730 -81.4150 173° South 471 542 41,000  Level FlightAware
06:11PM 25.3830 -81.4030 173° South 472 543 41,000  Level FlightAware
06:12PM 25.2850 -81.3890 173° South 472 543 41,000  Level FlightAware
06:13PM 25.2020 -81.3780 173° South 473 544 41,000  Level FlightAware
06:13PM 25.1090 -81.3650 173° South 466 536 41,000 -180 Level FlightAware
06:14PM 25.0120 -81.3520 173° South 467 537 40,800 -660 Descending FlightAware
06:15PM 24.9210 -81.3400 173° South 484 557 40,100 -960 Descending FlightAware
06:16PM 24.8280 -81.3270 173° South 488 562 39,500 -780 Descending FlightAware
06:16PM 24.7390 -81.3160 174° South 482 555 39,000 -1,020 Descending FlightAware
06:17PM 24.6300 -81.3010 173° South 483 556 38,100 -1,920 Descending FlightAware
06:18PM 24.5410 -81.2900 174° South 486 559 36,300 -2,820 Descending FlightAware
06:18PM 24.4600 -81.2790 173° South 486 559 34,600 -3,120 Descending FlightAware
06:19PM 24.3690 -81.2660 173° South 488 562 32,400 -2,700 Descending FlightAware
06:20PM 24.2320 -81.2480 173° South 484 557 29,900 -3,960 Descending FlightAware
06:21PM 24.1430 -81.2360 173° South 499 574 25,500 -3,780 Descending FlightAware
06:21PM 24.0550 -81.2230 172° South 483 556 24,900 -1,620 Descending FlightAware
06:22PM 23.9330 -81.2110 175° South 483 556 22,800 -1,260 Descending FlightAware
06:23PM 23.8580 -81.1990 172° South 483 556 22,800  Level FlightAware
06:24PM 23.7830 -81.1880 172° South 483 556 22,800  Level FlightAware
06:24PM 23.7070 -81.1760 172° South 483 556 22,800  Level FlightAware
06:25PM 23.6130 -81.1620 172° South 483 556 22,800  Level FlightAware
06:30PM 23.1167 -81.3000 190° South  Level FlightAware Approximate
06:31PM 23.0519 -81.4066 190° South  Level Estimated
06:32PM 23.0345 -81.4353 190° South  Level Estimated
06:33PM 23.0344 -81.4353 190° South  Level Estimated
06:34PM 23.0345 -81.4353 190° South  Level Estimated
06:35PM 23.0344 -81.4353 190° South  Level Estimated
06:36PM 23.0345 -81.4353 190° South  Level Estimated
06:37PM 23.0344 -81.4353 190° South  Level Estimated
06:38PM 23.0345 -81.4353 190° South  Level Estimated
06:39PM 23.0344 -81.4353 190° South  Level Estimated
06:40PM 23.0345 -81.4353 190° South  Level Estimated
06:41PM 23.0344 -81.4353 190° South  Level Estimated
06:42PM 23.0345 -81.4353 190° South  Level Estimated
06:43PM 23.0344 -81.4353 190° South  Level Estimated
06:44PM 23.0345 -81.4353 190° South  Level Estimated
06:45PM 23.0344 -81.4353 190° South  Level Estimated
06:46PM 23.0345 -81.4353 190° South  Level Estimated
06:47PM 23.0344 -81.4353 190° South  Level Estimated
06:48PM 23.0345 -81.4353 190° South  Level Estimated
06:49PM 23.0344 -81.4353 190° South  Level Estimated
06:50PM 23.0345 -81.4353 190° South  Level Estimated
06:51PM 23.0344 -81.4353 190° South  Level Estimated
06:52PM 23.0345 -81.4353 190° South  Level Estimated